createdAt,value
2022-09-12T00:02:02.442Z,14.80
2022-09-12T00:04:29.169Z,14.80
2022-09-12T00:06:55.865Z,14.70
2022-09-12T00:09:22.507Z,14.70
2022-09-12T00:11:49.263Z,14.70
2022-09-12T00:14:17.852Z,14.70
2022-09-12T00:16:45.225Z,14.70
2022-09-12T00:19:12.334Z,14.60
2022-09-12T00:21:40.511Z,14.60
2022-09-12T00:24:07.610Z,14.60
2022-09-12T00:26:34.332Z,14.60
2022-09-12T00:29:01.062Z,14.60
2022-09-12T00:31:28.246Z,14.60
2022-09-12T00:33:57.303Z,14.60
2022-09-12T00:36:25.785Z,14.50
2022-09-12T00:38:54.438Z,14.50
2022-09-12T00:41:26.202Z,14.40
2022-09-12T00:44:01.939Z,14.40
2022-09-12T00:46:46.655Z,14.30
2022-09-12T00:49:42.410Z,14.30
2022-09-12T00:52:16.548Z,14.30
2022-09-12T00:55:05.178Z,14.30
2022-09-12T00:57:37.662Z,14.30
2022-09-12T01:00:15.637Z,14.20
2022-09-12T01:02:45.811Z,14.30
2022-09-12T01:05:13.476Z,14.30
2022-09-12T01:07:41.546Z,14.30
2022-09-12T01:10:09.609Z,14.30
2022-09-12T01:12:39.337Z,14.30
2022-09-12T01:15:06.681Z,14.30
2022-09-12T01:18:07.744Z,14.20
2022-09-12T01:20:44.232Z,14.20
2022-09-12T01:23:35.144Z,14.20
2022-09-12T01:26:36.467Z,14.20
2022-09-12T01:29:24.879Z,14.20
2022-09-12T01:32:30.625Z,14.20
2022-09-12T01:35:36.628Z,14.10
2022-09-12T01:38:20.798Z,14.10
2022-09-12T01:40:59.730Z,14.10
2022-09-12T01:44:08.252Z,14.10
2022-09-12T01:46:55.706Z,14.00
2022-09-12T01:49:24.163Z,14.00
2022-09-12T01:52:04.975Z,14.00
2022-09-12T01:54:41.071Z,14.00
2022-09-12T01:57:19.831Z,14.00
2022-09-12T01:59:51.180Z,14.00
2022-09-12T02:02:32.959Z,14.00
2022-09-12T02:05:14.660Z,14.00
2022-09-12T02:07:47.359Z,13.90
2022-09-12T02:10:29.107Z,13.90
2022-09-12T02:13:06.794Z,13.90
2022-09-12T02:15:38.186Z,13.80
2022-09-12T02:18:06.472Z,13.80
2022-09-12T02:20:48.571Z,13.80
2022-09-12T02:23:24.380Z,13.80
2022-09-12T02:25:55.015Z,13.80
2022-09-12T02:28:31.139Z,13.80
2022-09-12T02:31:19.644Z,13.80
2022-09-12T02:33:57.035Z,13.70
2022-09-12T02:36:51.786Z,13.70
2022-09-12T02:39:20.843Z,13.70
2022-09-12T02:41:50.771Z,13.60
2022-09-12T02:44:17.794Z,13.60
2022-09-12T02:46:49.316Z,13.60
2022-09-12T02:49:17.117Z,13.60
2022-09-12T02:51:46.497Z,13.60
2022-09-12T02:54:14.820Z,13.60
2022-09-12T02:56:44.510Z,13.50
2022-09-12T02:59:18.727Z,13.50
2022-09-12T03:02:04.038Z,13.50
2022-09-12T03:05:02.587Z,13.50
2022-09-12T03:07:51.663Z,13.40
2022-09-12T03:10:25.817Z,13.40
2022-09-12T03:12:57.048Z,13.40
2022-09-12T03:15:54.340Z,13.50
2022-09-12T03:18:49.008Z,13.50
2022-09-12T03:21:32.288Z,13.40
2022-09-12T03:24:20.840Z,13.40
2022-09-12T03:27:08.862Z,13.40
2022-09-12T03:29:38.165Z,13.50
2022-09-12T03:32:04.812Z,13.50
2022-09-12T03:34:31.439Z,13.50
2022-09-12T03:36:58.498Z,13.40
2022-09-12T03:39:26.837Z,13.50
2022-09-12T03:41:54.745Z,13.40
2022-09-12T03:44:21.704Z,13.40
2022-09-12T03:46:48.452Z,13.40
2022-09-12T03:49:15.416Z,13.40
2022-09-12T03:51:43.154Z,13.40
2022-09-12T03:54:11.148Z,13.50
2022-09-12T03:56:38.068Z,13.40
2022-09-12T03:59:06.695Z,13.40
2022-09-12T04:01:33.893Z,13.40
2022-09-12T04:04:00.636Z,13.40
2022-09-12T04:06:27.402Z,13.40
2022-09-12T04:08:55.205Z,13.40
2022-09-12T04:11:22.970Z,13.30
2022-09-12T04:13:50.071Z,13.30
2022-09-12T04:16:17.947Z,13.40
2022-09-12T04:18:45.375Z,13.30
2022-09-12T04:21:15.752Z,13.40
2022-09-12T04:23:43.299Z,13.40
2022-09-12T04:26:10.350Z,13.40
2022-09-12T04:28:38.094Z,13.40
2022-09-12T04:31:15.464Z,13.40
2022-09-12T04:33:42.152Z,13.50
2022-09-12T04:36:16.515Z,13.50
2022-09-12T04:38:47.476Z,13.50
2022-09-12T04:41:22.766Z,13.50
2022-09-12T04:43:54.098Z,13.50
2022-09-12T04:46:21.180Z,13.50
2022-09-12T04:48:48.861Z,13.50
2022-09-12T04:51:22.847Z,13.50
2022-09-12T04:53:52.860Z,13.50
2022-09-12T04:56:20.504Z,13.50
2022-09-12T04:58:47.558Z,13.50
2022-09-12T05:01:18.067Z,13.50
2022-09-12T05:03:46.220Z,13.50
2022-09-12T05:06:18.789Z,13.50
2022-09-12T05:08:45.908Z,13.50
2022-09-12T05:11:15.329Z,13.60
2022-09-12T05:13:42.225Z,13.50
2022-09-12T05:16:11.560Z,13.60
2022-09-12T05:18:38.934Z,13.50
2022-09-12T05:21:09.224Z,13.60
2022-09-12T05:23:36.294Z,13.60
2022-09-12T05:26:05.084Z,13.60
2022-09-12T05:28:36.608Z,13.70
2022-09-12T05:31:07.850Z,13.70
2022-09-12T05:33:36.932Z,13.70
2022-09-12T05:36:06.266Z,13.70
2022-09-12T05:38:35.718Z,13.70
2022-09-12T05:41:30.753Z,13.70
2022-09-12T05:44:01.168Z,13.70
2022-09-12T05:46:31.381Z,13.70
2022-09-12T05:49:04.616Z,13.80
2022-09-12T05:51:35.168Z,13.80
2022-09-12T05:54:04.309Z,13.80
2022-09-12T05:56:33.405Z,13.90
2022-09-12T05:59:05.463Z,13.90
2022-09-12T06:01:36.344Z,13.90
2022-09-12T06:04:05.687Z,13.90
2022-09-12T06:06:35.446Z,13.90
2022-09-12T06:09:05.848Z,13.90
2022-09-12T06:11:34.952Z,13.90
2022-09-12T06:14:02.204Z,13.90
2022-09-12T06:16:31.292Z,13.90
2022-09-12T06:19:13.739Z,13.90
2022-09-12T06:21:40.508Z,13.90
2022-09-12T06:24:10.164Z,13.90
2022-09-12T06:26:36.873Z,14.00
2022-09-12T06:29:04.814Z,13.90
2022-09-12T06:31:36.372Z,13.90
2022-09-12T06:34:05.679Z,13.90
2022-09-12T06:36:43.825Z,14.00
2022-09-12T06:39:13.348Z,14.00
2022-09-12T06:41:43.715Z,14.00
2022-09-12T06:44:14.235Z,14.00
2022-09-12T06:46:40.835Z,14.10
2022-09-12T06:49:08.082Z,14.00
2022-09-12T06:51:36.216Z,14.10
2022-09-12T06:54:03.780Z,14.10
2022-09-12T06:56:31.143Z,14.20
2022-09-12T06:58:59.072Z,14.20
2022-09-12T07:01:29.660Z,14.30
2022-09-12T07:04:02.384Z,14.30
2022-09-12T07:06:34.984Z,14.30
2022-09-12T07:09:03.876Z,14.40
2022-09-12T07:11:36.420Z,14.40
2022-09-12T07:14:05.134Z,14.50
2022-09-12T07:16:32.434Z,14.60
2022-09-12T07:19:01.178Z,14.70
2022-09-12T07:21:29.039Z,14.80
2022-09-12T07:23:57.718Z,14.80
2022-09-12T07:26:28.005Z,14.90
2022-09-12T07:29:07.848Z,15.00
2022-09-12T07:31:39.787Z,15.10
2022-09-12T07:34:06.742Z,15.20
2022-09-12T07:36:33.435Z,15.30
2022-09-12T07:39:00.154Z,15.50
2022-09-12T07:41:28.571Z,15.60
2022-09-12T07:43:59.296Z,15.70
2022-09-12T07:46:27.021Z,15.80
2022-09-12T07:48:55.529Z,15.90
2022-09-12T07:51:23.232Z,16.00
2022-09-12T07:53:49.984Z,16.20
2022-09-12T07:56:17.520Z,16.20
2022-09-12T07:58:44.552Z,16.30
2022-09-12T08:01:13.375Z,16.40
2022-09-12T08:03:41.196Z,16.50
2022-09-12T08:06:07.890Z,16.50
2022-09-12T08:08:35.190Z,16.60
2022-09-12T08:11:05.256Z,16.60
2022-09-12T08:13:35.383Z,16.70
2022-09-12T08:16:05.852Z,16.80
2022-09-12T08:18:34.776Z,16.90
2022-09-12T08:21:26.368Z,16.90
2022-09-12T08:23:55.400Z,17.00
2022-09-12T08:26:23.433Z,17.10
2022-09-12T08:28:50.460Z,17.20
2022-09-12T08:31:19.535Z,17.20
2022-09-12T08:33:46.526Z,17.30
2022-09-12T08:36:19.880Z,17.40
2022-09-12T08:38:48.945Z,17.40
2022-09-12T08:41:18.694Z,17.50
2022-09-12T08:43:56.088Z,17.60
2022-09-12T08:46:27.559Z,17.70
2022-09-12T08:48:57.308Z,17.80
2022-09-12T08:51:24.970Z,18.00
2022-09-12T08:53:54.630Z,18.10
2022-09-12T08:56:21.907Z,18.20
2022-09-12T08:58:49.145Z,18.20
2022-09-12T09:01:24.377Z,18.40
2022-09-12T09:04:03.957Z,18.40
2022-09-12T09:06:48.004Z,18.50
2022-09-12T09:09:33.436Z,18.80
2022-09-12T09:12:19.802Z,18.90
2022-09-12T09:15:09.246Z,19.10
2022-09-12T09:17:47.819Z,19.20
2022-09-12T09:20:43.984Z,19.40
2022-09-12T09:23:34.647Z,19.60
2022-09-12T09:26:17.303Z,19.70
2022-09-12T09:28:51.278Z,20.00
2022-09-12T09:31:23.445Z,20.20
2022-09-12T09:33:58.516Z,20.60
2022-09-12T09:36:45.136Z,21.00
2022-09-12T09:39:22.691Z,21.40
2022-09-12T09:41:54.463Z,21.80
2022-09-12T09:44:21.306Z,22.10
2022-09-12T09:46:53.218Z,22.50
2022-09-12T09:49:21.213Z,22.80
2022-09-12T09:51:48.143Z,23.10
2022-09-12T09:54:18.579Z,23.40
2022-09-12T09:56:45.310Z,23.70
2022-09-12T09:59:16.107Z,24.00
2022-09-12T10:01:46.280Z,24.30
2022-09-12T10:04:24.977Z,24.50
2022-09-12T10:06:58.271Z,24.70
2022-09-12T10:09:27.848Z,24.80
2022-09-12T10:11:56.116Z,25.10
2022-09-12T10:14:42.116Z,25.40
2022-09-12T10:17:34.161Z,25.70
2022-09-12T10:20:20.424Z,25.70
2022-09-12T10:22:48.892Z,25.90
2022-09-12T10:25:20.381Z,26.00
2022-09-12T10:27:52.935Z,26.10
2022-09-12T10:30:21.672Z,26.30
2022-09-12T10:32:54.057Z,26.70
2022-09-12T10:35:22.643Z,26.90
2022-09-12T10:37:56.851Z,26.90
2022-09-12T10:40:27.892Z,27.30
2022-09-12T10:42:57.447Z,27.40
2022-09-12T10:45:32.796Z,27.60
2022-09-12T10:48:24.088Z,27.50
2022-09-12T10:50:50.895Z,27.60
2022-09-12T10:53:33.615Z,27.50
2022-09-12T10:56:11.901Z,27.80
2022-09-12T10:59:20.318Z,28.10
2022-09-12T11:01:50.534Z,28.30
2022-09-12T11:04:46.747Z,28.40
2022-09-12T11:07:47.620Z,28.40
2022-09-12T11:10:38.031Z,28.50
2022-09-12T11:13:14.325Z,28.60
2022-09-12T11:15:56.199Z,28.60
2022-09-12T11:18:30.077Z,28.70
2022-09-12T11:21:12.258Z,28.90
2022-09-12T11:23:58.503Z,28.90
2022-09-12T11:27:02.815Z,28.70
2022-09-12T11:29:33.606Z,28.40
2022-09-12T11:32:05.967Z,28.20
2022-09-12T11:35:06.172Z,28.00
2022-09-12T11:37:48.395Z,27.90
2022-09-12T11:40:45.295Z,27.70
2022-09-12T11:43:19.325Z,27.70
2022-09-12T11:45:47.715Z,27.50
2022-09-12T11:48:48.951Z,27.60
2022-09-12T11:51:24.508Z,27.60
2022-09-12T11:54:04.120Z,27.60
2022-09-12T11:56:30.886Z,27.50
2022-09-12T11:59:04.466Z,27.10
2022-09-12T12:01:45.031Z,26.90
2022-09-12T12:04:20.843Z,27.00
2022-09-12T12:07:01.593Z,27.00
2022-09-12T12:09:28.418Z,27.00
2022-09-12T12:11:58.379Z,26.90
2022-09-12T12:14:38.279Z,26.90
2022-09-12T12:17:05.143Z,26.70
2022-09-12T12:19:35.027Z,26.70
2022-09-12T12:22:08.158Z,26.70
2022-09-12T12:24:35.144Z,26.70
2022-09-12T12:27:24.423Z,26.60
2022-09-12T12:29:53.497Z,26.50
2022-09-12T12:32:22.364Z,26.50
2022-09-12T12:34:49.071Z,26.50
2022-09-12T12:37:22.011Z,26.50
2022-09-12T12:39:52.664Z,26.50
2022-09-12T12:43:01.656Z,26.40
2022-09-12T12:45:28.289Z,26.30
2022-09-12T12:47:59.971Z,26.30
2022-09-12T12:50:29.195Z,26.40
2022-09-12T12:52:59.651Z,26.40
2022-09-12T12:55:58.689Z,26.50
2022-09-12T12:58:39.512Z,26.50
2022-09-12T13:01:22.942Z,26.40
2022-09-12T13:03:58.725Z,26.40
2022-09-12T13:06:37.708Z,26.40
2022-09-12T13:09:24.819Z,26.30
2022-09-12T13:11:59.743Z,26.40
2022-09-12T13:14:54.424Z,26.30
2022-09-12T13:17:39.658Z,26.30
2022-09-12T13:20:34.568Z,26.20
2022-09-12T13:23:01.279Z,26.20
2022-09-12T13:25:37.332Z,26.20
2022-09-12T13:28:18.338Z,26.30
2022-09-12T13:30:53.047Z,26.30
2022-09-12T13:33:29.058Z,26.20
2022-09-12T13:36:17.484Z,26.30
2022-09-12T13:39:04.383Z,26.30
2022-09-12T13:41:46.164Z,26.30
2022-09-12T13:44:17.159Z,26.20
2022-09-12T13:46:44.242Z,26.10
2022-09-12T13:49:35.138Z,26.10
2022-09-12T13:52:08.327Z,26.10
2022-09-12T13:54:38.761Z,26.00
2022-09-12T13:57:06.044Z,25.90
2022-09-12T13:59:40.057Z,25.90
2022-09-12T14:02:20.581Z,26.00
2022-09-12T14:05:07.533Z,26.00
2022-09-12T14:07:40.351Z,26.00
2022-09-12T14:10:07.433Z,26.10
2022-09-12T14:12:41.283Z,26.00
2022-09-12T14:15:24.313Z,26.10
2022-09-12T14:17:54.689Z,26.10
2022-09-12T14:20:24.241Z,26.00
2022-09-12T14:22:52.467Z,26.00
2022-09-12T14:25:22.328Z,25.90
2022-09-12T14:27:53.851Z,26.00
2022-09-12T14:30:25.256Z,25.90
2022-09-12T14:33:10.105Z,25.80
2022-09-12T14:35:45.405Z,25.90
2022-09-12T14:38:14.975Z,25.90
2022-09-12T14:40:44.372Z,25.80
2022-09-12T14:43:34.313Z,25.60
2022-09-12T14:46:20.205Z,25.70
2022-09-12T14:48:51.659Z,25.50
2022-09-12T14:51:26.990Z,25.50
2022-09-12T14:53:54.026Z,25.50
2022-09-12T14:56:22.901Z,25.50
2022-09-12T14:58:50.398Z,25.50
2022-09-12T15:01:24.728Z,25.50
2022-09-12T15:03:54.241Z,25.40
2022-09-12T15:06:38.137Z,25.40
2022-09-12T15:09:13.414Z,25.40
2022-09-12T15:11:40.041Z,25.30
2022-09-12T15:14:12.680Z,25.30
2022-09-12T15:16:39.309Z,25.20
2022-09-12T15:19:06.283Z,25.20
2022-09-12T15:21:33.227Z,25.10
2022-09-12T15:23:59.935Z,25.10
2022-09-12T15:26:30.430Z,25.00
2022-09-12T15:28:57.538Z,25.00
2022-09-12T15:31:26.022Z,25.10
2022-09-12T15:33:53.899Z,25.10
2022-09-12T15:36:21.804Z,25.10
2022-09-12T15:38:49.851Z,25.10
2022-09-12T15:41:26.239Z,25.10
2022-09-12T15:43:52.969Z,25.10
2022-09-12T15:46:20.102Z,25.10
2022-09-12T15:48:46.800Z,25.10
2022-09-12T15:51:18.959Z,25.10
2022-09-12T15:53:46.743Z,25.00
2022-09-12T15:56:19.015Z,25.00
2022-09-12T15:58:58.106Z,25.00
2022-09-12T16:01:26.049Z,24.90
2022-09-12T16:03:52.800Z,24.80
2022-09-12T16:06:19.483Z,24.80
2022-09-12T16:08:46.176Z,24.70
2022-09-12T16:11:23.708Z,24.60
2022-09-12T16:13:52.137Z,24.70
2022-09-12T16:16:18.787Z,24.70
2022-09-12T16:18:45.544Z,24.70
2022-09-12T16:21:15.216Z,24.60
2022-09-12T16:23:43.544Z,24.60
2022-09-12T16:26:10.724Z,24.50
2022-09-12T16:28:37.552Z,24.50
2022-09-12T16:31:06.752Z,24.50
2022-09-12T16:33:34.083Z,24.50
2022-09-12T16:36:03.528Z,24.40
2022-09-12T16:38:30.812Z,24.40
2022-09-12T16:41:05.648Z,24.40
2022-09-12T16:43:33.715Z,24.20
2022-09-12T16:46:05.613Z,24.10
2022-09-12T16:48:32.623Z,24.00
2022-09-12T16:51:01.817Z,23.90
2022-09-12T16:53:33.012Z,23.90
2022-09-12T16:55:59.803Z,23.90
2022-09-12T16:58:27.611Z,23.90
2022-09-12T17:01:12.164Z,23.80
2022-09-12T17:03:39.164Z,23.70
2022-09-12T17:06:08.471Z,23.50
2022-09-12T17:08:38.034Z,23.40
2022-09-12T17:11:12.822Z,23.30
2022-09-12T17:14:02.659Z,23.20
2022-09-12T17:16:27.927Z,23.10
2022-09-12T17:18:55.055Z,23.00
2022-09-12T17:21:22.154Z,22.90
2022-09-12T17:23:49.112Z,22.90
2022-09-12T17:26:42.257Z,22.80
2022-09-12T17:30:18.243Z,22.70
2022-09-12T17:32:45.159Z,22.60
2022-09-12T17:35:16.845Z,22.40
2022-09-12T17:37:43.521Z,22.40
2022-09-12T17:40:10.650Z,22.20
2022-09-12T17:42:40.818Z,22.20
2022-09-12T17:45:08.397Z,22.10
2022-09-12T17:47:35.011Z,22.10
2022-09-12T17:50:30.000Z,22.00
2022-09-12T17:52:48.284Z,22.00
2022-09-12T17:55:15.323Z,21.90
2022-09-12T17:57:42.011Z,21.90
2022-09-12T18:00:09.309Z,21.80
2022-09-12T18:02:39.010Z,21.80
2022-09-12T18:05:06.064Z,21.70
2022-09-12T18:07:35.425Z,21.60
2022-09-12T18:10:02.352Z,21.50
2022-09-12T18:12:29.033Z,21.40
2022-09-12T18:14:55.636Z,21.40
2022-09-12T18:17:22.544Z,21.30
2022-09-12T18:19:53.667Z,21.30
2022-09-12T18:22:20.619Z,21.20
2022-09-12T18:24:47.262Z,21.20
2022-09-12T18:27:14.101Z,21.10
2022-09-12T18:29:40.737Z,21.10
2022-09-12T18:32:07.984Z,21.00
2022-09-12T18:34:34.954Z,21.00
2022-09-12T18:37:05.143Z,20.90
2022-09-12T18:39:31.862Z,20.80
2022-09-12T18:41:59.191Z,20.80
2022-09-12T18:44:27.862Z,20.80
2022-09-12T18:46:54.581Z,20.80
2022-09-12T18:49:21.240Z,20.70
2022-09-12T18:51:47.867Z,20.70
2022-09-12T18:54:14.845Z,20.60
2022-09-12T18:56:43.770Z,20.60
2022-09-12T18:59:12.763Z,20.50
2022-09-12T19:01:39.831Z,20.50
2022-09-12T19:04:08.852Z,20.40
2022-09-12T19:06:38.263Z,20.30
2022-09-12T19:09:09.218Z,20.30
2022-09-12T19:11:38.299Z,20.20
2022-09-12T19:14:05.677Z,20.20
2022-09-12T19:16:32.400Z,20.20
2022-09-12T19:18:59.743Z,20.10
2022-09-12T19:21:29.655Z,20.00
2022-09-12T19:23:58.868Z,20.00
2022-09-12T19:26:26.097Z,20.00
2022-09-12T19:28:56.697Z,20.00
2022-09-12T19:31:24.273Z,19.90
2022-09-12T19:33:54.853Z,19.90
2022-09-12T19:36:43.969Z,19.80
2022-09-12T19:39:09.817Z,19.80
2022-09-12T19:41:43.959Z,19.80
2022-09-12T19:44:11.460Z,19.80
2022-09-12T19:46:38.211Z,19.80
2022-09-12T19:49:04.993Z,19.70
2022-09-12T19:51:31.771Z,19.80
2022-09-12T19:53:58.805Z,19.80
2022-09-12T19:56:25.703Z,19.80
2022-09-12T19:58:56.343Z,19.80
2022-09-12T20:01:28.175Z,19.80
2022-09-12T20:03:55.833Z,19.70
2022-09-12T20:06:22.630Z,19.70
2022-09-12T20:08:49.695Z,19.80
2022-09-12T20:11:21.742Z,20.00
2022-09-12T20:13:48.707Z,19.90
2022-09-12T20:16:30.448Z,19.90
2022-09-12T20:19:02.749Z,19.90
2022-09-12T20:21:31.675Z,19.80
2022-09-12T20:24:11.316Z,19.80
2022-09-12T20:26:38.318Z,19.70
2022-09-12T20:29:05.730Z,19.70
2022-09-12T20:31:33.735Z,19.60
2022-09-12T20:34:00.606Z,19.60
2022-09-12T20:36:27.646Z,19.60
2022-09-12T20:38:56.918Z,19.50
2022-09-12T20:41:25.256Z,19.50
2022-09-12T20:43:53.312Z,19.50
2022-09-12T20:46:22.386Z,19.40
2022-09-12T20:48:50.030Z,19.40
2022-09-12T20:51:16.740Z,19.30
2022-09-12T20:53:43.364Z,19.30
2022-09-12T20:56:10.132Z,19.30
2022-09-12T20:58:39.370Z,19.20
2022-09-12T21:01:11.553Z,19.30
2022-09-12T21:03:39.435Z,19.30
2022-09-12T21:06:07.435Z,19.30
2022-09-12T21:08:35.123Z,19.20
2022-09-12T21:11:02.028Z,19.30
2022-09-12T21:13:29.165Z,19.30
2022-09-12T21:16:04.394Z,19.30
2022-09-12T21:18:32.023Z,19.30
2022-09-12T21:20:58.903Z,19.30
2022-09-12T21:23:26.811Z,19.30
2022-09-12T21:25:53.755Z,19.30
2022-09-12T21:28:20.797Z,19.30
2022-09-12T21:30:48.559Z,19.30
2022-09-12T21:33:15.322Z,19.30
2022-09-12T21:35:42.005Z,19.30
2022-09-12T21:38:09.261Z,19.30
2022-09-12T21:40:35.963Z,19.30
2022-09-12T21:43:02.820Z,19.30
2022-09-12T21:45:29.678Z,19.20
2022-09-12T21:47:56.284Z,19.20
2022-09-12T21:50:22.923Z,19.20
2022-09-12T21:52:49.609Z,19.20
2022-09-12T21:55:16.404Z,19.20
2022-09-12T21:57:43.019Z,19.30
2022-09-12T22:00:16.349Z,19.40
2022-09-12T22:02:43.297Z,19.40
2022-09-12T22:05:10.354Z,19.50
2022-09-12T22:07:37.323Z,19.50
2022-09-12T22:10:04.859Z,19.60
2022-09-12T22:12:31.503Z,19.50
2022-09-12T22:14:58.172Z,19.50
2022-09-12T22:17:24.898Z,19.60
2022-09-12T22:19:51.573Z,19.60
2022-09-12T22:22:37.094Z,19.60
2022-09-12T22:25:04.289Z,19.60
2022-09-12T22:27:30.931Z,19.60
2022-09-12T22:29:57.552Z,19.60
2022-09-12T22:32:24.329Z,19.50
2022-09-12T22:34:50.994Z,19.40
2022-09-12T22:37:17.896Z,19.40
2022-09-12T22:39:44.956Z,19.30
2022-09-12T22:42:13.917Z,19.20
2022-09-12T22:44:40.564Z,19.20
2022-09-12T22:47:07.164Z,19.10
2022-09-12T22:49:33.789Z,19.10
2022-09-12T22:52:00.451Z,19.10
2022-09-12T22:54:27.884Z,19.10
2022-09-12T22:56:54.807Z,19.00
2022-09-12T22:59:21.516Z,19.00
2022-09-12T23:01:48.137Z,19.00
2022-09-12T23:04:14.754Z,19.00
2022-09-12T23:06:41.467Z,19.00
2022-09-12T23:09:08.118Z,19.00
2022-09-12T23:11:35.099Z,18.90
2022-09-12T23:14:01.711Z,18.90
2022-09-12T23:16:31.062Z,18.90
2022-09-12T23:18:58.319Z,18.90
2022-09-12T23:21:25.038Z,18.90
2022-09-12T23:23:51.748Z,18.80
2022-09-12T23:26:24.364Z,18.80
2022-09-12T23:28:55.850Z,18.80
2022-09-12T23:31:24.251Z,18.80
2022-09-12T23:33:54.523Z,18.80
2022-09-12T23:36:22.284Z,18.80
2022-09-12T23:38:49.556Z,18.80
2022-09-12T23:41:17.480Z,18.80
2022-09-12T23:43:45.460Z,18.80
2022-09-12T23:46:13.982Z,18.80
2022-09-12T23:48:41.121Z,18.80
2022-09-12T23:51:08.113Z,18.70
2022-09-12T23:53:35.751Z,18.70
2022-09-12T23:56:02.918Z,18.70
2022-09-12T23:58:31.864Z,18.70
